NCAR-RAP Real-Time Weather Data

Output produced by METARs form (23 July 2019  22:46 UTC)
found at http://weather.rap.ucar.edu/surface/
 
KHLN 232236Z 25005KT 10SM VCTS 32/09 A3004 RMK AO2 LTG DSNT W AND NW T03220089 $
KHLN 232153Z 11004KT 10SM FEW065 FEW095 33/09 A3004 RMK AO2 LTG DSNT W SLP147 T03330089
KHLN 232053Z AUTO 33003KT 10SM CLR 31/12 A3007 RMK AO2 LTG DSNT SW SLP158 T03110117 56020
KHLN 231953Z 05006KT 10SM CLR 32/10 A3009 RMK AO2 SLP161 T03220100
KHLN 231853Z 01007KT 10SM CLR 31/11 A3011 RMK AO2 SLP170 T03060111
KHLN 231753Z 00000KT 10SM CLR 28/12 A3014 RMK AO2 SLP181 T02780122 10283 20161 58009
KHLN 231653Z 11004KT 10SM CLR 25/12 A3015 RMK AO2 SLP187 T02500117
KHLN 231553Z 00000KT 10SM CLR 23/12 A3016 RMK AO2 SLP192 T02280117
KHLN 231453Z 31005KT 10SM CLR 21/12 A3016 RMK AO2 SLP192 T02110122 55001
KHLN 231353Z 04003KT 10SM CLR 19/12 A3016 RMK AO2 SLP192 T01890117
KHLN 231253Z 34003KT 10SM CLR 18/12 A3015 RMK AO2 SLP189 T01830117
KHLN 231153Z 00000KT 10SM CLR 16/11 A3017 RMK AO2 SLP194 T01610106 10228 20156 53012
KHLN 231053Z AUTO 00000KT 10SM CLR 16/11 A3014 RMK AO2 SLP186 T01610111
KHLN 230953Z AUTO 25007KT 10SM CLR 17/11 A3013 RMK AO2 SLP181 T01720111
KHLN 230853Z AUTO 28005KT 10SM CLR 18/12 A3013 RMK AO2 SLP180 T01830117 58001
KHLN 230753Z AUTO 24006KT 10SM CLR 21/12 A3013 RMK AO2 SLP179 T02060122
KHLN 230653Z AUTO 30003KT 10SM CLR 20/13 A3014 RMK AO2 SLP182 T02000128 403170117
KHLN 230553Z AUTO 00000KT 10SM CLR 22/13 A3013 RMK AO2 SLP181 T02220133 10311 20211 51009
KHLN 230453Z AUTO 00000KT 10SM CLR 24/13 A3013 RMK AO2 SLP182 T02390128
KHLN 230353Z 24004KT 10SM CLR 24/13 A3010 RMK AO2 SLP177 T02390133